createdAt,value
2019-05-05T00:00:47.205Z,3.90
2019-05-05T00:03:29.935Z,3.93
2019-05-05T00:06:05.298Z,4.80
2019-05-05T00:08:37.156Z,4.30
2019-05-05T00:11:46.065Z,4.77
2019-05-05T00:14:25.055Z,3.80
2019-05-05T00:17:02.378Z,3.70
2019-05-05T00:19:35.885Z,3.87
2019-05-05T00:22:07.743Z,3.97
2019-05-05T00:24:39.508Z,3.47
2019-05-05T00:27:11.205Z,3.13
2019-05-05T00:29:45.163Z,3.10
2019-05-05T00:32:16.784Z,3.67
2019-05-05T00:34:48.579Z,4.10
2019-05-05T00:37:20.446Z,3.70
2019-05-05T00:39:54.228Z,3.90
2019-05-05T00:42:26.594Z,4.00
2019-05-05T00:44:58.263Z,4.00
2019-05-05T00:47:47.634Z,4.35
2019-05-05T00:50:21.358Z,3.83
2019-05-05T00:52:55.090Z,4.20
2019-05-05T00:55:27.096Z,3.33
2019-05-05T00:57:58.842Z,3.63
2019-05-05T01:00:45.090Z,4.00
2019-05-05T01:03:20.900Z,3.90
2019-05-05T01:06:04.572Z,4.17
2019-05-05T01:08:36.620Z,4.50
2019-05-05T01:11:08.666Z,4.20
2019-05-05T01:13:40.571Z,3.73
2019-05-05T01:16:12.767Z,4.20
2019-05-05T01:18:47.468Z,3.87
2019-05-05T01:21:45.264Z,5.00
2019-05-05T01:24:39.607Z,4.87
2019-05-05T01:27:25.875Z,3.93
2019-05-05T01:30:00.954Z,4.60
2019-05-05T01:32:37.296Z,4.33
2019-05-05T01:35:09.148Z,4.73
2019-05-05T01:37:54.400Z,5.20
2019-05-05T01:40:44.695Z,4.60
2019-05-05T01:43:16.444Z,4.37
2019-05-05T01:45:48.109Z,4.37
2019-05-05T01:48:19.880Z,5.12
2019-05-05T01:50:51.514Z,5.00
2019-05-05T01:53:24.506Z,4.00
2019-05-05T01:55:56.785Z,5.63
2019-05-05T01:58:28.433Z,5.30
2019-05-05T02:01:00.494Z,5.87
2019-05-05T02:03:34.824Z,5.28
2019-05-05T02:06:06.008Z,5.83
2019-05-05T02:08:37.834Z,6.45
2019-05-05T02:11:09.587Z,5.70
2019-05-05T02:13:41.322Z,6.73
2019-05-05T02:16:14.952Z,5.97
2019-05-05T02:18:46.528Z,5.33
2019-05-05T02:21:18.238Z,4.70
2019-05-05T02:23:49.874Z,6.00
2019-05-05T02:26:21.836Z,5.40
2019-05-05T02:29:28.530Z,5.50
2019-05-05T02:32:19.084Z,4.77
2019-05-05T02:34:56.377Z,5.03
2019-05-05T02:37:28.346Z,5.57
2019-05-05T02:40:04.366Z,6.00
2019-05-05T02:42:35.417Z,5.17
2019-05-05T02:45:09.550Z,6.87
2019-05-05T02:47:59.909Z,5.80
2019-05-05T02:50:57.533Z,5.33
2019-05-05T02:53:30.810Z,5.30
2019-05-05T02:56:07.030Z,6.33
2019-05-05T02:58:40.131Z,6.00
2019-05-05T03:01:28.239Z,5.40
2019-05-05T03:04:03.623Z,6.20
2019-05-05T03:06:35.573Z,5.17
2019-05-05T03:09:07.964Z,5.37
2019-05-05T03:11:40.573Z,5.40
2019-05-05T03:14:15.753Z,5.57
2019-05-05T03:16:47.750Z,6.33
2019-05-05T03:19:23.549Z,5.70
2019-05-05T03:21:56.168Z,5.60
2019-05-05T03:24:28.411Z,6.60
2019-05-05T03:27:00.111Z,6.10
2019-05-05T03:29:33.621Z,6.35
2019-05-05T03:32:06.431Z,5.80
2019-05-05T03:34:38.990Z,6.43
2019-05-05T03:37:11.586Z,5.67
2019-05-05T03:39:47.651Z,5.95
2019-05-05T03:42:33.819Z,7.00
2019-05-05T03:45:14.516Z,6.27
2019-05-05T03:47:46.589Z,7.30
2019-05-05T03:50:18.361Z,6.87
2019-05-05T03:52:50.384Z,8.60
2019-05-05T03:55:24.137Z,7.00
2019-05-05T03:57:56.386Z,6.37
2019-05-05T04:01:17.826Z,6.60
2019-05-05T04:03:49.844Z,5.70
2019-05-05T04:06:37.478Z,6.83
2019-05-05T04:09:09.589Z,6.10
2019-05-05T04:11:41.913Z,6.33
2019-05-05T04:14:14.364Z,6.90
2019-05-05T04:17:04.997Z,6.70
2019-05-05T04:19:38.920Z,8.03
2019-05-05T04:22:13.590Z,7.13
2019-05-05T04:24:44.103Z,6.63
2019-05-05T04:27:15.888Z,6.80
2019-05-05T04:29:47.602Z,6.40
2019-05-05T04:32:20.092Z,6.00
2019-05-05T04:34:54.131Z,6.80
2019-05-05T04:37:25.275Z,6.63
2019-05-05T04:39:57.029Z,6.47
2019-05-05T04:42:29.161Z,6.73
2019-05-05T04:45:00.841Z,5.77
2019-05-05T04:47:35.190Z,6.25
2019-05-05T04:50:23.887Z,5.97
2019-05-05T04:52:57.197Z,5.20
2019-05-05T04:55:28.915Z,6.65
2019-05-05T04:58:00.542Z,6.63
2019-05-05T05:00:34.174Z,6.60
2019-05-05T05:03:28.074Z,5.90
2019-05-05T05:06:04.142Z,6.03
2019-05-05T05:08:36.249Z,6.60
2019-05-05T05:11:08.147Z,7.37
2019-05-05T05:13:39.859Z,6.17
2019-05-05T05:16:13.724Z,5.90
2019-05-05T05:18:44.869Z,6.63
2019-05-05T05:21:17.417Z,6.83
2019-05-05T05:23:49.067Z,7.13
2019-05-05T05:26:20.723Z,10.63
2019-05-05T05:28:53.847Z,8.67
2019-05-05T05:31:25.635Z,7.40
2019-05-05T05:33:57.379Z,8.50
2019-05-05T05:36:29.203Z,7.97
2019-05-05T05:39:05.913Z,6.55
2019-05-05T05:41:44.756Z,5.30
2019-05-05T05:44:36.622Z,6.57
2019-05-05T05:47:16.401Z,6.07
2019-05-05T05:49:54.435Z,5.40
2019-05-05T05:52:26.370Z,5.90
2019-05-05T05:54:58.212Z,6.70
2019-05-05T05:57:29.927Z,5.87
2019-05-05T06:00:03.984Z,5.70
2019-05-05T06:02:35.537Z,5.80
2019-05-05T06:05:07.341Z,4.83
2019-05-05T06:07:40.437Z,6.23
2019-05-05T06:10:22.146Z,5.90
2019-05-05T06:12:45.877Z,5.20
2019-05-05T06:15:17.580Z,6.00
2019-05-05T06:17:49.366Z,5.83
2019-05-05T06:20:21.085Z,6.07
2019-05-05T06:22:53.561Z,8.30
2019-05-05T06:25:26.701Z,7.50
2019-05-05T06:27:58.690Z,6.13
2019-05-05T06:30:30.411Z,6.20
2019-05-05T06:33:04.699Z,9.33
2019-05-05T06:35:36.217Z,5.90
2019-05-05T06:38:08.136Z,5.50
2019-05-05T06:40:58.727Z,5.15
2019-05-05T06:43:58.499Z,5.57
2019-05-05T06:46:34.286Z,5.77
2019-05-05T06:49:06.213Z,5.40
2019-05-05T06:51:37.953Z,5.00
2019-05-05T06:54:10.609Z,5.90
2019-05-05T06:56:44.397Z,5.55
2019-05-05T06:59:16.152Z,4.90
2019-05-05T07:01:47.854Z,5.20
2019-05-05T07:04:19.645Z,4.63
2019-05-05T07:06:56.195Z,4.60
2019-05-05T07:09:25.162Z,5.17
2019-05-05T07:11:57.120Z,5.50
2019-05-05T07:14:31.076Z,5.50
2019-05-05T07:17:04.892Z,7.30
2019-05-05T07:19:36.327Z,11.10
2019-05-05T07:22:08.018Z,5.70
2019-05-05T07:24:39.878Z,31.30
2019-05-05T07:27:13.904Z,8.80
2019-05-05T07:29:45.374Z,5.77
2019-05-05T07:32:17.064Z,5.13
2019-05-05T07:35:06.231Z,4.10
2019-05-05T07:37:38.039Z,4.47
2019-05-05T07:40:10.054Z,4.60
2019-05-05T07:42:43.962Z,3.20
2019-05-05T07:45:22.142Z,4.17
2019-05-05T07:47:48.669Z,4.20
2019-05-05T07:50:31.212Z,3.43
2019-05-05T07:52:54.562Z,3.30
2019-05-05T07:55:27.868Z,3.63
2019-05-05T07:57:57.095Z,3.60
2019-05-05T08:00:29.224Z,4.50
2019-05-05T08:03:03.759Z,5.73
2019-05-05T08:05:35.699Z,4.20
2019-05-05T08:08:07.681Z,3.77
2019-05-05T08:10:41.106Z,3.90
2019-05-05T08:13:14.130Z,4.40
2019-05-05T08:15:59.149Z,3.10
2019-05-05T08:18:30.274Z,3.50
2019-05-05T08:21:05.938Z,4.37
2019-05-05T08:23:45.985Z,4.37
2019-05-05T08:26:28.307Z,3.60
2019-05-05T08:29:23.865Z,3.00
2019-05-05T08:32:00.920Z,3.50
2019-05-05T08:34:33.968Z,3.20
2019-05-05T08:37:05.880Z,3.33
2019-05-05T08:39:37.761Z,3.03
2019-05-05T08:42:09.598Z,3.50
2019-05-05T08:44:41.670Z,3.97
2019-05-05T08:47:15.375Z,3.20
2019-05-05T08:49:47.389Z,3.50
2019-05-05T08:52:19.169Z,4.30
2019-05-05T08:54:51.389Z,5.13
2019-05-05T08:57:24.073Z,3.60
2019-05-05T08:59:55.836Z,3.20
2019-05-05T09:02:27.937Z,3.57
2019-05-05T09:04:59.693Z,3.23
2019-05-05T09:07:33.583Z,3.30
2019-05-05T09:10:05.008Z,3.40
2019-05-05T09:12:36.849Z,3.60
2019-05-05T09:15:09.300Z,2.90
2019-05-05T09:17:43.936Z,3.50
2019-05-05T09:20:20.237Z,2.43
2019-05-05T09:22:53.563Z,2.70
2019-05-05T09:25:53.957Z,2.60
2019-05-05T09:28:47.479Z,5.30
2019-05-05T09:31:19.953Z,2.60
2019-05-05T09:33:53.626Z,2.80
2019-05-05T09:36:25.582Z,2.30
2019-05-05T09:38:57.794Z,2.10
2019-05-05T09:41:31.662Z,2.30
2019-05-05T09:44:04.301Z,2.53
2019-05-05T09:46:39.649Z,1.87
2019-05-05T09:49:13.923Z,2.03
2019-05-05T09:51:46.162Z,2.30
2019-05-05T09:54:20.042Z,3.17
2019-05-05T09:56:53.717Z,2.00
2019-05-05T09:59:27.183Z,2.20
2019-05-05T10:02:00.030Z,2.37
2019-05-05T10:04:33.329Z,1.70
2019-05-05T10:07:08.897Z,2.10
2019-05-05T10:09:40.801Z,2.00
2019-05-05T10:12:12.616Z,1.87
2019-05-05T10:14:44.991Z,1.90
2019-05-05T10:17:16.752Z,2.10
2019-05-05T10:19:48.483Z,2.40
2019-05-05T10:22:20.610Z,1.97
2019-05-05T10:24:57.619Z,2.30
2019-05-05T10:27:44.017Z,2.00
2019-05-05T10:30:04.123Z,2.03
2019-05-05T10:32:36.049Z,2.07
2019-05-05T10:35:10.309Z,4.60
2019-05-05T10:37:45.488Z,4.08
2019-05-05T10:40:20.358Z,3.00
2019-05-05T10:42:53.944Z,2.20
2019-05-05T10:45:26.280Z,1.67
2019-05-05T10:47:58.066Z,2.00
2019-05-05T10:50:29.906Z,1.70
2019-05-05T10:53:01.744Z,2.43
2019-05-05T10:55:36.029Z,2.10
2019-05-05T10:58:11.378Z,1.87
2019-05-05T11:01:03.967Z,2.00
2019-05-05T11:03:35.435Z,2.07
2019-05-05T11:06:07.242Z,2.20
2019-05-05T11:08:39.352Z,2.10
2019-05-05T11:11:13.709Z,1.73
2019-05-05T11:13:47.667Z,1.60
2019-05-05T11:16:19.486Z,2.23
2019-05-05T11:18:51.228Z,1.60
2019-05-05T11:21:24.437Z,2.13
2019-05-05T11:23:56.600Z,2.30
2019-05-05T11:26:28.595Z,2.10
2019-05-05T11:29:00.396Z,1.63
2019-05-05T11:31:34.357Z,2.00
2019-05-05T11:34:14.592Z,1.90
2019-05-05T11:36:58.376Z,1.83
2019-05-05T11:39:30.209Z,2.10
2019-05-05T11:42:04.242Z,2.20
2019-05-05T11:44:35.525Z,2.05
2019-05-05T11:47:08.119Z,2.00
2019-05-05T11:49:39.827Z,1.93
2019-05-05T11:52:11.694Z,2.17
2019-05-05T11:54:44.142Z,2.27
2019-05-05T11:57:15.973Z,2.43
2019-05-05T11:59:47.811Z,2.23
2019-05-05T12:02:19.622Z,2.20
2019-05-05T12:04:51.626Z,2.23
2019-05-05T12:07:23.774Z,2.30
2019-05-05T12:09:57.523Z,2.40
2019-05-05T12:12:29.432Z,2.50
2019-05-05T12:15:01.341Z,2.00
2019-05-05T12:17:36.664Z,2.30
2019-05-05T12:20:09.139Z,1.90
2019-05-05T12:22:41.568Z,2.07
2019-05-05T12:25:31.010Z,2.10
2019-05-05T12:28:07.469Z,2.60
2019-05-05T12:30:39.240Z,2.10
2019-05-05T12:33:11.120Z,2.00
2019-05-05T12:35:44.593Z,2.07
2019-05-05T12:38:16.668Z,1.70
2019-05-05T12:40:48.346Z,2.57
2019-05-05T12:43:20.462Z,2.00
2019-05-05T12:45:59.772Z,2.00
2019-05-05T12:48:34.584Z,2.30
2019-05-05T12:51:06.342Z,2.30
2019-05-05T12:53:38.093Z,1.87
2019-05-05T12:56:09.787Z,2.10
2019-05-05T12:58:43.937Z,2.47
2019-05-05T13:01:24.461Z,2.50
2019-05-05T13:03:56.493Z,2.30
2019-05-05T13:06:54.086Z,2.23
2019-05-05T13:09:26.722Z,2.20
2019-05-05T13:11:58.467Z,2.70
2019-05-05T13:14:33.621Z,2.47
2019-05-05T13:17:05.566Z,2.03
2019-05-05T13:19:48.035Z,2.20
2019-05-05T13:22:54.075Z,2.67
2019-05-05T13:25:33.514Z,1.97
2019-05-05T13:28:04.766Z,2.07
2019-05-05T13:30:36.789Z,1.80
2019-05-05T13:33:09.618Z,2.00
2019-05-05T13:35:41.564Z,1.40
2019-05-05T13:38:14.589Z,1.80
2019-05-05T13:40:46.616Z,1.73
2019-05-05T13:43:18.340Z,1.60
2019-05-05T13:45:58.290Z,1.97
2019-05-05T13:48:30.055Z,1.73
2019-05-05T13:51:04.310Z,2.70
2019-05-05T13:53:36.091Z,1.87
2019-05-05T13:56:12.203Z,1.53
2019-05-05T13:58:43.706Z,2.00
2019-05-05T14:01:15.738Z,1.50
2019-05-05T14:03:47.941Z,2.10
2019-05-05T14:06:19.934Z,1.80
2019-05-05T14:08:53.856Z,2.23
2019-05-05T14:11:25.223Z,2.47
2019-05-05T14:13:56.974Z,2.27
2019-05-05T14:16:28.774Z,2.13
2019-05-05T14:19:00.527Z,1.80
2019-05-05T14:21:33.991Z,2.00
2019-05-05T14:24:18.169Z,1.70
2019-05-05T14:26:50.040Z,2.43
2019-05-05T14:29:45.849Z,2.47
2019-05-05T14:32:19.575Z,2.90
2019-05-05T14:34:57.867Z,2.10
2019-05-05T14:37:54.644Z,2.03
2019-05-05T14:40:26.375Z,1.90
2019-05-05T14:42:58.128Z,1.80
2019-05-05T14:45:30.140Z,2.10
2019-05-05T14:48:03.842Z,1.60
2019-05-05T14:50:35.395Z,1.93
2019-05-05T14:53:07.324Z,1.70
2019-05-05T14:55:39.090Z,1.60
2019-05-05T14:58:11.045Z,1.60
2019-05-05T15:00:44.263Z,2.20
2019-05-05T15:03:16.106Z,1.90
2019-05-05T15:05:59.911Z,2.07
2019-05-05T15:08:41.293Z,1.80
2019-05-05T15:11:33.765Z,2.10
2019-05-05T15:14:06.948Z,2.03
2019-05-05T15:16:38.935Z,3.40
2019-05-05T15:19:10.767Z,1.97
2019-05-05T15:21:44.299Z,1.77
2019-05-05T15:24:17.345Z,1.80
2019-05-05T15:26:52.239Z,1.80
2019-05-05T15:29:24.991Z,2.27
2019-05-05T15:31:56.056Z,2.00
2019-05-05T15:34:27.873Z,2.17
2019-05-05T15:37:03.919Z,1.60
2019-05-05T15:39:36.491Z,1.73
2019-05-05T15:42:08.615Z,1.80
2019-05-05T15:44:40.487Z,2.40
2019-05-05T15:47:12.279Z,1.80
2019-05-05T15:49:44.189Z,1.70
2019-05-05T15:52:16.153Z,1.65
2019-05-05T15:54:48.725Z,1.80
2019-05-05T15:57:20.653Z,1.77
2019-05-05T15:59:54.278Z,2.00
2019-05-05T16:02:26.209Z,2.10
2019-05-05T16:04:57.982Z,2.07
2019-05-05T16:07:29.845Z,2.53
2019-05-05T16:10:03.988Z,1.53
2019-05-05T16:12:39.353Z,2.10
2019-05-05T16:15:35.093Z,2.27
2019-05-05T16:18:15.843Z,2.00
2019-05-05T16:20:55.321Z,1.97
2019-05-05T16:23:35.635Z,2.20
2019-05-05T16:26:08.261Z,2.00
2019-05-05T16:28:40.080Z,1.90
2019-05-05T16:31:11.923Z,1.83
2019-05-05T16:33:44.134Z,1.60
2019-05-05T16:36:16.102Z,2.13
2019-05-05T16:38:48.264Z,1.80
2019-05-05T16:41:20.493Z,2.40
2019-05-05T16:43:53.401Z,1.50
2019-05-05T16:46:25.404Z,1.87
2019-05-05T16:48:57.504Z,1.70
2019-05-05T16:51:34.820Z,1.80
2019-05-05T16:54:13.786Z,1.52
2019-05-05T16:56:45.809Z,1.63
2019-05-05T16:59:17.970Z,1.50
2019-05-05T17:01:49.892Z,1.40
2019-05-05T17:04:23.828Z,3.30
2019-05-05T17:06:55.440Z,1.70
2019-05-05T17:09:27.252Z,2.13
2019-05-05T17:12:11.256Z,1.80
2019-05-05T17:14:57.329Z,2.00
2019-05-05T17:17:35.821Z,1.97
2019-05-05T17:20:13.813Z,2.47
2019-05-05T17:22:54.595Z,2.30
2019-05-05T17:25:26.629Z,1.90
2019-05-05T17:27:58.458Z,2.50
2019-05-05T17:30:30.338Z,2.37
2019-05-05T17:33:03.799Z,1.83
2019-05-05T17:35:36.240Z,1.95
2019-05-05T17:38:13.583Z,1.72
2019-05-05T17:41:03.679Z,1.80
2019-05-05T17:43:57.767Z,1.70
2019-05-05T17:46:40.829Z,2.00
2019-05-05T17:49:34.272Z,1.70
2019-05-05T17:52:19.910Z,1.90
2019-05-05T17:54:55.263Z,1.70
2019-05-05T17:57:27.092Z,1.53
2019-05-05T17:59:58.957Z,1.90
2019-05-05T18:02:31.021Z,1.77
2019-05-05T18:05:04.523Z,1.70
2019-05-05T18:07:39.800Z,1.80
2019-05-05T18:10:34.439Z,1.73
2019-05-05T18:13:21.574Z,1.67
2019-05-05T18:15:56.084Z,1.80
2019-05-05T18:18:27.847Z,1.80
2019-05-05T18:20:59.861Z,2.47
2019-05-05T18:23:31.679Z,1.90
2019-05-05T18:26:04.119Z,1.77
2019-05-05T18:28:36.504Z,1.73
2019-05-05T18:31:08.314Z,1.70
2019-05-05T18:33:40.281Z,1.73
2019-05-05T18:36:14.037Z,1.73
2019-05-05T18:38:45.709Z,1.90
2019-05-05T18:41:26.794Z,1.83
2019-05-05T18:44:17.762Z,2.30
2019-05-05T18:47:17.857Z,2.37
2019-05-05T18:49:47.547Z,1.60
2019-05-05T18:52:19.962Z,1.90
2019-05-05T18:54:54.549Z,2.00
2019-05-05T18:57:26.754Z,1.83
2019-05-05T18:59:58.653Z,1.73
2019-05-05T19:02:58.151Z,2.20
2019-05-05T19:05:53.568Z,1.90
2019-05-05T19:08:31.929Z,1.93
2019-05-05T19:11:03.897Z,1.90
2019-05-05T19:13:35.694Z,1.80
2019-05-05T19:16:07.794Z,2.00
2019-05-05T19:18:39.823Z,2.00
2019-05-05T19:21:26.067Z,2.20
2019-05-05T19:23:57.837Z,2.00
2019-05-05T19:26:29.653Z,1.73
2019-05-05T19:29:02.952Z,2.00
2019-05-05T19:31:36.625Z,2.07
2019-05-05T19:34:08.759Z,2.30
2019-05-05T19:36:40.723Z,2.20
2019-05-05T19:39:13.753Z,1.62
2019-05-05T19:41:47.038Z,1.80
2019-05-05T19:44:19.068Z,1.77
2019-05-05T19:47:06.148Z,2.12
2019-05-05T19:49:39.405Z,2.10
2019-05-05T19:52:13.436Z,1.50
2019-05-05T19:55:14.442Z,2.20
2019-05-05T19:58:23.495Z,1.90
2019-05-05T20:01:01.409Z,1.50
2019-05-05T20:03:35.193Z,2.30
2019-05-05T20:06:07.041Z,1.70
2019-05-05T20:08:41.271Z,1.50
2019-05-05T20:11:14.305Z,2.10
2019-05-05T20:13:46.305Z,1.82
2019-05-05T20:16:46.292Z,2.23
2019-05-05T20:19:21.017Z,2.57
2019-05-05T20:21:54.399Z,1.90
2019-05-05T20:24:41.211Z,3.40
2019-05-05T20:27:23.454Z,2.37
2019-05-05T20:29:55.091Z,2.30
2019-05-05T20:32:51.928Z,2.60
2019-05-05T20:35:53.745Z,1.93
2019-05-05T20:38:55.647Z,1.93
2019-05-05T20:41:37.256Z,2.03
2019-05-05T20:44:38.693Z,2.30
2019-05-05T20:47:14.972Z,2.10
2019-05-05T20:49:46.729Z,2.47
2019-05-05T20:53:18.542Z,2.40
2019-05-05T20:55:51.013Z,2.67
2019-05-05T20:58:23.906Z,2.92
2019-05-05T21:00:55.849Z,2.50
2019-05-05T21:03:30.433Z,2.50
2019-05-05T21:06:04.313Z,2.47
2019-05-05T21:08:36.052Z,2.83
2019-05-05T21:11:07.893Z,2.60
2019-05-05T21:13:39.847Z,2.80
2019-05-05T21:16:13.975Z,2.80
2019-05-05T21:18:45.257Z,2.77
2019-05-05T21:21:21.829Z,2.80
2019-05-05T21:23:57.042Z,3.00
2019-05-05T21:26:55.447Z,2.53
2019-05-05T21:29:44.711Z,2.60
2019-05-05T21:32:20.456Z,2.95
2019-05-05T21:34:52.532Z,2.87
2019-05-05T21:37:24.858Z,2.80
2019-05-05T21:39:56.936Z,3.30
2019-05-05T21:42:44.391Z,3.13
2019-05-05T21:45:34.492Z,3.33
2019-05-05T21:48:05.636Z,2.90
2019-05-05T21:50:42.817Z,3.17
2019-05-05T21:53:24.715Z,2.92
2019-05-05T21:56:15.427Z,2.97
2019-05-05T21:58:47.260Z,3.57
2019-05-05T22:01:49.154Z,3.60
2019-05-05T22:04:30.260Z,6.03
2019-05-05T22:07:17.840Z,4.57
2019-05-05T22:10:18.226Z,3.05
2019-05-05T22:12:50.028Z,2.53
2019-05-05T22:15:22.083Z,3.22
2019-05-05T22:17:54.295Z,3.03
2019-05-05T22:20:36.740Z,3.30
2019-05-05T22:23:08.134Z,3.70
2019-05-05T22:25:40.201Z,3.13
2019-05-05T22:28:39.825Z,3.20
2019-05-05T22:31:14.186Z,3.50
2019-05-05T22:33:46.100Z,3.87
2019-05-05T22:36:17.915Z,3.30
2019-05-05T22:38:49.631Z,3.47
2019-05-05T22:41:24.281Z,3.30
2019-05-05T22:43:56.424Z,3.23
2019-05-05T22:47:04.583Z,3.60
2019-05-05T22:49:34.746Z,3.00
2019-05-05T22:52:06.594Z,3.60
2019-05-05T22:55:13.905Z,4.40
2019-05-05T22:57:46.950Z,4.25
2019-05-05T23:00:26.607Z,4.97
2019-05-05T23:03:04.406Z,4.53
2019-05-05T23:05:44.418Z,4.60
2019-05-05T23:08:18.471Z,3.83
2019-05-05T23:10:49.829Z,4.30
2019-05-05T23:13:21.605Z,4.00
2019-05-05T23:16:46.284Z,3.30
2019-05-05T23:19:21.210Z,3.60
2019-05-05T23:21:59.374Z,3.60
2019-05-05T23:24:37.052Z,2.97
2019-05-05T23:27:10.544Z,3.30
2019-05-05T23:29:44.530Z,3.43
2019-05-05T23:32:15.645Z,3.53
2019-05-05T23:34:47.438Z,3.40
2019-05-05T23:37:19.246Z,3.20
2019-05-05T23:39:51.057Z,3.90
2019-05-05T23:42:24.062Z,4.47
2019-05-05T23:44:55.849Z,4.40
2019-05-05T23:47:27.648Z,3.60
2019-05-05T23:49:59.385Z,3.37
2019-05-05T23:52:31.205Z,3.80
2019-05-05T23:55:04.046Z,3.23
2019-05-05T23:57:36.937Z,3.33
